createdAt,value
2018-03-04T00:00:41.740Z,3.0
2018-03-04T00:01:43.119Z,3.1
2018-03-04T00:02:44.500Z,3.0
2018-03-04T00:03:45.885Z,3.0
2018-03-04T00:04:47.268Z,2.9
2018-03-04T00:05:48.649Z,3.0
2018-03-04T00:06:50.053Z,3.0
2018-03-04T00:07:51.435Z,3.1
2018-03-04T00:08:52.815Z,3.0
2018-03-04T00:09:54.199Z,3.0
2018-03-04T00:10:55.587Z,3.0
2018-03-04T00:11:56.966Z,3.1
2018-03-04T00:12:58.346Z,2.9
2018-03-04T00:13:59.729Z,3.0
2018-03-04T00:15:01.347Z,3.0
2018-03-04T00:16:02.716Z,3.0
2018-03-04T00:17:04.097Z,3.0
2018-03-04T00:18:05.481Z,3.1
2018-03-04T00:19:06.856Z,3.1
2018-03-04T00:20:08.238Z,3.1
2018-03-04T00:21:09.628Z,3.1
2018-03-04T00:22:11.010Z,3.1
2018-03-04T00:23:12.390Z,3.1
2018-03-04T00:24:13.770Z,3.1
2018-03-04T00:25:15.149Z,3.2
2018-03-04T00:26:16.533Z,3.1
2018-03-04T00:27:18.004Z,3.1
2018-03-04T00:28:19.464Z,3.1
2018-03-04T00:29:20.843Z,3.1
2018-03-04T00:30:22.226Z,3.1
2018-03-04T00:31:23.607Z,3.2
2018-03-04T00:32:24.988Z,3.1
2018-03-04T00:33:26.369Z,3.1
2018-03-04T00:34:27.751Z,3.2
2018-03-04T00:35:29.133Z,3.1
2018-03-04T00:36:30.516Z,3.0
2018-03-04T00:37:31.900Z,3.2
2018-03-04T00:38:33.279Z,3.1
2018-03-04T00:39:34.663Z,3.0
2018-03-04T00:40:36.051Z,3.1
2018-03-04T00:41:37.431Z,3.1
2018-03-04T00:42:38.816Z,3.1
2018-03-04T00:43:40.198Z,3.1
2018-03-04T00:44:41.577Z,3.1
2018-03-04T00:45:42.960Z,3.1
2018-03-04T00:46:44.344Z,3.1
2018-03-04T00:47:45.721Z,3.1
2018-03-04T00:48:47.103Z,3.1
2018-03-04T00:49:48.487Z,3.1
2018-03-04T00:50:49.867Z,3.1
2018-03-04T00:51:51.247Z,3.1
2018-03-04T00:52:52.628Z,3.1
2018-03-04T00:53:54.012Z,3.1
2018-03-04T00:54:55.395Z,3.0
2018-03-04T00:55:56.776Z,3.0
2018-03-04T00:56:58.157Z,3.1
2018-03-04T00:57:59.539Z,3.0
2018-03-04T00:59:00.919Z,3.0
2018-03-04T01:00:02.298Z,2.9
2018-03-04T01:01:03.686Z,2.9
2018-03-04T01:02:05.071Z,3.0
2018-03-04T01:03:06.452Z,3.1
2018-03-04T01:04:07.832Z,3.0
2018-03-04T01:05:09.210Z,3.0
2018-03-04T01:06:10.589Z,3.0
2018-03-04T01:07:11.968Z,3.1
2018-03-04T01:08:13.352Z,2.9
2018-03-04T01:09:14.737Z,3.0
2018-03-04T01:10:16.116Z,3.1
2018-03-04T01:11:17.501Z,3.0
2018-03-04T01:12:18.884Z,3.0
2018-03-04T01:13:20.267Z,3.0
2018-03-04T01:14:21.648Z,3.0
2018-03-04T01:15:23.027Z,3.0
2018-03-04T01:16:24.411Z,3.1
2018-03-04T01:17:25.795Z,3.0
2018-03-04T01:18:27.178Z,3.1
2018-03-04T01:19:28.611Z,3.1
2018-03-04T01:20:30.086Z,3.0
2018-03-04T01:21:31.467Z,3.0
2018-03-04T01:22:32.847Z,3.0
2018-03-04T01:23:34.230Z,3.0
2018-03-04T01:24:35.616Z,3.0
2018-03-04T01:25:37.000Z,3.0
2018-03-04T01:26:38.392Z,3.0
2018-03-04T01:27:39.774Z,3.0
2018-03-04T01:28:41.154Z,3.1
2018-03-04T01:29:42.536Z,3.1
2018-03-04T01:30:43.918Z,3.0
2018-03-04T01:31:45.302Z,3.0
2018-03-04T01:32:46.683Z,3.0
2018-03-04T01:33:48.064Z,3.0
2018-03-04T01:34:49.442Z,3.0
2018-03-04T01:35:50.825Z,3.0
2018-03-04T01:36:52.210Z,3.1
2018-03-04T01:37:53.591Z,3.0
2018-03-04T01:38:54.973Z,3.0
2018-03-04T01:39:56.356Z,3.0
2018-03-04T01:40:57.735Z,2.9
2018-03-04T01:41:59.117Z,3.0
2018-03-04T01:43:00.498Z,3.0
2018-03-04T01:44:01.881Z,3.0
2018-03-04T01:45:03.264Z,3.0
2018-03-04T01:46:04.656Z,3.0
2018-03-04T01:47:06.041Z,3.0
2018-03-04T01:48:07.421Z,3.0
2018-03-04T01:49:08.801Z,3.0
2018-03-04T01:50:10.194Z,3.0
2018-03-04T01:51:11.599Z,3.0
2018-03-04T01:52:12.982Z,3.0
2018-03-04T01:53:14.367Z,2.9
2018-03-04T01:54:15.747Z,3.0
2018-03-04T01:55:17.128Z,3.0
2018-03-04T01:56:18.514Z,3.1
2018-03-04T01:57:19.917Z,3.1
2018-03-04T01:58:21.296Z,3.0
2018-03-04T01:59:22.673Z,3.1
2018-03-04T02:00:24.054Z,3.0
2018-03-04T02:01:25.440Z,3.0
2018-03-04T02:02:26.831Z,3.0
2018-03-04T02:03:28.216Z,3.0
2018-03-04T02:04:29.602Z,3.0
2018-03-04T02:05:30.980Z,3.1
2018-03-04T02:06:32.363Z,3.0
2018-03-04T02:07:33.743Z,3.1
2018-03-04T02:08:35.130Z,2.9
2018-03-04T02:09:36.507Z,3.1
2018-03-04T02:10:37.890Z,3.1
2018-03-04T02:11:39.318Z,3.1
2018-03-04T02:12:40.726Z,3.1
2018-03-04T02:13:42.110Z,3.1
2018-03-04T02:14:43.494Z,3.1
2018-03-04T02:15:44.875Z,3.1
2018-03-04T02:16:46.256Z,3.1
2018-03-04T02:17:47.636Z,3.2
2018-03-04T02:18:49.014Z,3.1
2018-03-04T02:19:50.397Z,3.2
2018-03-04T02:20:51.777Z,3.2
2018-03-04T02:21:53.160Z,3.2
2018-03-04T02:22:54.554Z,3.2
2018-03-04T02:23:55.932Z,3.2
2018-03-04T02:24:57.314Z,3.2
2018-03-04T02:25:58.696Z,3.2
2018-03-04T02:27:00.079Z,3.2
2018-03-04T02:28:01.463Z,3.2
2018-03-04T02:29:02.846Z,3.2
2018-03-04T02:30:04.244Z,3.2
2018-03-04T02:31:05.622Z,3.2
2018-03-04T02:32:06.997Z,3.2
2018-03-04T02:33:08.379Z,3.2
2018-03-04T02:34:09.759Z,3.2
2018-03-04T02:35:11.144Z,3.2
2018-03-04T02:36:12.528Z,3.2
2018-03-04T02:37:13.917Z,3.3
2018-03-04T02:38:15.295Z,3.3
2018-03-04T02:39:16.672Z,3.2
2018-03-04T02:40:18.056Z,3.2
2018-03-04T02:41:19.440Z,3.3
2018-03-04T02:42:20.824Z,3.3
2018-03-04T02:43:22.205Z,3.2
2018-03-04T02:44:23.587Z,3.2
2018-03-04T02:45:24.975Z,3.2
2018-03-04T02:46:26.346Z,3.2
2018-03-04T02:47:27.729Z,3.2
2018-03-04T02:48:29.108Z,3.3
2018-03-04T02:49:30.488Z,3.2
2018-03-04T02:50:31.870Z,3.2
2018-03-04T02:51:33.252Z,3.2
2018-03-04T02:52:34.644Z,3.2
2018-03-04T02:53:36.031Z,3.2
2018-03-04T02:54:37.414Z,3.3
2018-03-04T02:55:38.789Z,3.3
2018-03-04T02:56:40.168Z,3.2
2018-03-04T02:57:41.552Z,3.3
2018-03-04T02:58:42.935Z,3.3
2018-03-04T02:59:44.317Z,3.1
2018-03-04T03:00:45.700Z,3.2
2018-03-04T03:01:47.079Z,3.2
2018-03-04T03:02:48.460Z,3.1
2018-03-04T03:03:49.955Z,3.2
2018-03-04T03:04:51.359Z,3.2
2018-03-04T03:05:52.747Z,3.2
2018-03-04T03:06:54.132Z,3.2
2018-03-04T03:07:55.520Z,3.2
2018-03-04T03:08:56.896Z,3.2
2018-03-04T03:09:58.277Z,3.2
2018-03-04T03:10:59.660Z,3.2
2018-03-04T03:12:01.039Z,3.2
2018-03-04T03:13:02.428Z,3.2
2018-03-04T03:14:03.808Z,3.2
2018-03-04T03:15:05.191Z,3.2
2018-03-04T03:16:06.571Z,3.3
2018-03-04T03:17:07.955Z,3.2
2018-03-04T03:18:09.337Z,3.3
2018-03-04T03:19:10.720Z,3.1
2018-03-04T03:20:12.104Z,3.2
2018-03-04T03:21:13.485Z,3.3
2018-03-04T03:22:14.866Z,3.3
2018-03-04T03:23:16.253Z,3.2
2018-03-04T03:24:17.635Z,3.2
2018-03-04T03:25:19.022Z,3.2
2018-03-04T03:26:20.404Z,3.3
2018-03-04T03:27:21.792Z,3.2
2018-03-04T03:28:23.171Z,3.2
2018-03-04T03:29:24.549Z,3.1
2018-03-04T03:30:25.932Z,3.2
2018-03-04T03:31:27.313Z,3.2
2018-03-04T03:32:28.696Z,3.2
2018-03-04T03:33:30.078Z,3.2
2018-03-04T03:34:31.459Z,3.2
2018-03-04T03:35:32.836Z,3.2
2018-03-04T03:36:34.218Z,3.2
2018-03-04T03:37:35.604Z,3.1
2018-03-04T03:38:36.983Z,3.2
2018-03-04T03:39:38.363Z,3.1
2018-03-04T03:40:39.747Z,3.1
2018-03-04T03:41:41.133Z,3.1
2018-03-04T03:42:42.513Z,3.0
2018-03-04T03:43:43.892Z,3.1
2018-03-04T03:44:45.271Z,3.0
2018-03-04T03:45:46.645Z,3.0
2018-03-04T03:46:48.041Z,3.0
2018-03-04T03:47:49.430Z,3.0
2018-03-04T03:48:50.812Z,3.0
2018-03-04T03:49:52.193Z,2.9
2018-03-04T03:50:53.573Z,3.0
2018-03-04T03:51:54.957Z,3.0
2018-03-04T03:52:56.331Z,3.0
2018-03-04T03:53:57.720Z,3.0
2018-03-04T03:54:59.094Z,3.0
2018-03-04T03:56:00.578Z,3.0
2018-03-04T03:57:01.972Z,3.0
2018-03-04T03:58:03.357Z,3.0
2018-03-04T03:59:04.750Z,2.9
2018-03-04T04:00:06.134Z,3.0
2018-03-04T04:01:07.515Z,2.9
2018-03-04T04:02:08.894Z,3.0
2018-03-04T04:03:10.279Z,2.9
2018-03-04T04:04:11.660Z,3.0
2018-03-04T04:05:13.040Z,3.0
2018-03-04T04:06:14.420Z,2.9
2018-03-04T04:07:15.806Z,2.9
2018-03-04T04:08:17.191Z,3.0
2018-03-04T04:09:18.572Z,3.0
2018-03-04T04:10:19.957Z,2.9
2018-03-04T04:11:21.336Z,2.9
2018-03-04T04:12:22.715Z,3.0
2018-03-04T04:13:24.101Z,3.0
2018-03-04T04:14:25.489Z,2.9
2018-03-04T04:15:26.864Z,2.9
2018-03-04T04:16:28.248Z,2.9
2018-03-04T04:17:29.629Z,2.9
2018-03-04T04:18:31.014Z,2.9
2018-03-04T04:19:32.392Z,2.9
2018-03-04T04:20:33.775Z,2.8
2018-03-04T04:21:35.160Z,2.9
2018-03-04T04:22:36.538Z,2.9
2018-03-04T04:23:37.922Z,2.9
2018-03-04T04:24:39.305Z,2.8
2018-03-04T04:25:40.687Z,2.9
2018-03-04T04:26:42.064Z,2.9
2018-03-04T04:27:43.447Z,2.9
2018-03-04T04:28:44.836Z,2.8
2018-03-04T04:29:46.210Z,2.8
2018-03-04T04:30:47.594Z,2.9
2018-03-04T04:31:48.989Z,2.8
2018-03-04T04:32:50.359Z,2.8
2018-03-04T04:33:51.740Z,2.8
2018-03-04T04:34:53.123Z,2.8
2018-03-04T04:35:54.526Z,2.8
2018-03-04T04:36:55.909Z,2.8
2018-03-04T04:37:57.288Z,2.8
2018-03-04T04:38:58.671Z,2.8
2018-03-04T04:40:00.054Z,2.8
2018-03-04T04:41:01.436Z,2.7
2018-03-04T04:42:02.818Z,2.7
2018-03-04T04:43:04.200Z,2.7
2018-03-04T04:44:05.586Z,2.7
2018-03-04T04:45:06.966Z,2.7
2018-03-04T04:46:08.349Z,2.7
2018-03-04T04:47:09.841Z,2.6
2018-03-04T04:48:11.164Z,2.6
2018-03-04T04:49:12.562Z,2.7
2018-03-04T04:50:13.942Z,2.6
2018-03-04T04:51:15.325Z,2.6
2018-03-04T04:52:16.706Z,2.6
2018-03-04T04:53:18.093Z,2.6
2018-03-04T04:54:19.485Z,2.6
2018-03-04T04:55:20.859Z,2.6
2018-03-04T04:56:22.239Z,2.6
2018-03-04T04:57:23.621Z,2.6
2018-03-04T04:58:25.004Z,2.6
2018-03-04T04:59:26.387Z,2.6
2018-03-04T05:00:27.770Z,2.6
2018-03-04T05:01:29.147Z,2.5
2018-03-04T05:02:30.531Z,2.5
2018-03-04T05:03:31.913Z,2.5
2018-03-04T05:04:33.293Z,2.6
2018-03-04T05:05:34.677Z,2.6
2018-03-04T05:06:36.058Z,2.5
2018-03-04T05:07:37.441Z,2.6
2018-03-04T05:08:38.818Z,2.6
2018-03-04T05:09:40.201Z,2.5
2018-03-04T05:10:41.581Z,2.6
2018-03-04T05:11:42.963Z,2.6
2018-03-04T05:12:44.347Z,2.6
2018-03-04T05:13:45.729Z,2.6
2018-03-04T05:14:47.115Z,2.6
2018-03-04T05:15:48.498Z,2.6
2018-03-04T05:16:49.882Z,2.6
2018-03-04T05:17:51.261Z,2.5
2018-03-04T05:18:52.645Z,2.6
2018-03-04T05:19:54.027Z,2.5
2018-03-04T05:20:55.410Z,2.6
2018-03-04T05:21:56.791Z,2.5
2018-03-04T05:22:58.169Z,2.6
2018-03-04T05:23:59.548Z,2.5
2018-03-04T05:25:00.927Z,2.6
2018-03-04T05:26:02.309Z,2.5
2018-03-04T05:27:03.691Z,2.5
2018-03-04T05:28:05.071Z,2.5
2018-03-04T05:29:06.455Z,2.5
2018-03-04T05:30:07.836Z,2.5
2018-03-04T05:31:09.229Z,2.5
2018-03-04T05:32:10.602Z,2.6
2018-03-04T05:33:11.979Z,2.6
2018-03-04T05:34:13.363Z,2.6
2018-03-04T05:35:14.744Z,2.5
2018-03-04T05:36:16.129Z,2.6
2018-03-04T05:37:17.515Z,2.6
2018-03-04T05:38:18.900Z,2.6
2018-03-04T05:39:20.291Z,2.5
2018-03-04T05:40:21.770Z,2.5
2018-03-04T05:41:23.168Z,2.6
2018-03-04T05:42:24.551Z,2.5
2018-03-04T05:43:25.932Z,2.5
2018-03-04T05:44:27.313Z,2.6
2018-03-04T05:45:28.692Z,2.6
2018-03-04T05:46:30.074Z,2.5
2018-03-04T05:47:31.452Z,2.6
2018-03-04T05:48:32.837Z,2.5
2018-03-04T05:49:34.217Z,2.6
2018-03-04T05:50:35.600Z,2.6
2018-03-04T05:51:36.979Z,2.5
2018-03-04T05:52:38.359Z,2.5
2018-03-04T05:53:39.738Z,2.6
2018-03-04T05:54:41.120Z,2.5
2018-03-04T05:55:42.508Z,2.6
2018-03-04T05:56:43.921Z,2.6
2018-03-04T05:57:45.309Z,2.5
2018-03-04T05:58:46.691Z,2.6
2018-03-04T05:59:48.067Z,2.6
2018-03-04T06:00:49.463Z,2.6
2018-03-04T06:01:50.842Z,2.5
2018-03-04T06:02:52.230Z,2.6
2018-03-04T06:03:53.619Z,2.6
2018-03-04T06:04:55.001Z,2.6
2018-03-04T06:05:56.383Z,2.5
2018-03-04T06:06:57.762Z,2.6
2018-03-04T06:07:59.148Z,2.6
2018-03-04T06:09:00.527Z,2.5
2018-03-04T06:10:01.914Z,2.5
2018-03-04T06:11:03.296Z,2.6
2018-03-04T06:12:04.678Z,2.6
2018-03-04T06:13:06.063Z,2.6
2018-03-04T06:14:07.442Z,2.5
2018-03-04T06:15:08.821Z,2.6
2018-03-04T06:16:10.204Z,2.5
2018-03-04T06:17:11.588Z,2.5
2018-03-04T06:18:12.979Z,2.6
2018-03-04T06:19:14.364Z,2.6
2018-03-04T06:20:15.745Z,2.6
2018-03-04T06:21:17.126Z,2.6
2018-03-04T06:22:18.509Z,2.6
2018-03-04T06:23:19.892Z,2.6
2018-03-04T06:24:21.280Z,2.6
2018-03-04T06:25:22.662Z,2.6
2018-03-04T06:26:24.049Z,2.6
2018-03-04T06:27:25.423Z,2.6
2018-03-04T06:28:26.804Z,2.6
2018-03-04T06:29:28.195Z,2.6
2018-03-04T06:30:29.589Z,2.6
2018-03-04T06:31:31.024Z,2.6
2018-03-04T06:32:32.497Z,2.6
2018-03-04T06:33:33.883Z,2.7
2018-03-04T06:34:35.272Z,2.6
2018-03-04T06:35:36.655Z,2.7
2018-03-04T06:36:38.041Z,2.6
2018-03-04T06:37:39.426Z,2.8
2018-03-04T06:38:40.812Z,2.8
2018-03-04T06:39:42.195Z,2.8
2018-03-04T06:40:43.581Z,2.8
2018-03-04T06:41:44.969Z,2.8
2018-03-04T06:42:46.351Z,2.8
2018-03-04T06:43:47.735Z,2.8
2018-03-04T06:44:49.121Z,2.8
2018-03-04T06:45:50.513Z,2.9
2018-03-04T06:46:51.897Z,2.9
2018-03-04T06:47:53.281Z,2.9
2018-03-04T06:48:54.664Z,3.0
2018-03-04T06:49:56.051Z,3.0
2018-03-04T06:50:57.436Z,2.9
2018-03-04T06:51:58.820Z,2.9
2018-03-04T06:53:00.207Z,2.9
2018-03-04T06:54:01.596Z,3.0
2018-03-04T06:55:02.985Z,3.0
2018-03-04T06:56:04.367Z,3.0
2018-03-04T06:57:05.753Z,2.9
2018-03-04T06:58:07.135Z,3.1
2018-03-04T06:59:08.520Z,3.1
2018-03-04T07:00:09.906Z,3.1
2018-03-04T07:01:11.293Z,3.2
2018-03-04T07:02:12.687Z,3.2
2018-03-04T07:03:14.072Z,3.2
2018-03-04T07:04:15.457Z,3.2
2018-03-04T07:05:16.842Z,3.2
2018-03-04T07:06:18.235Z,3.2
2018-03-04T07:07:19.613Z,3.2
2018-03-04T07:08:20.997Z,3.2
2018-03-04T07:09:22.386Z,3.2
2018-03-04T07:10:23.768Z,3.3
2018-03-04T07:11:25.152Z,3.3
2018-03-04T07:12:26.537Z,3.3
2018-03-04T07:13:27.933Z,3.3
2018-03-04T07:14:29.317Z,3.2
2018-03-04T07:15:30.704Z,3.4
2018-03-04T07:16:32.089Z,3.4
2018-03-04T07:17:33.473Z,3.4
2018-03-04T07:18:34.857Z,3.3
2018-03-04T07:19:36.239Z,3.5
2018-03-04T07:20:37.637Z,3.4
2018-03-04T07:21:39.025Z,3.4
2018-03-04T07:22:40.408Z,3.5
2018-03-04T07:23:41.819Z,3.4
2018-03-04T07:24:43.257Z,3.4
2018-03-04T07:25:44.642Z,3.4
2018-03-04T07:26:46.028Z,3.3
2018-03-04T07:27:47.414Z,3.3
2018-03-04T07:28:48.802Z,3.5
2018-03-04T07:29:50.188Z,3.5
2018-03-04T07:30:51.576Z,3.5
2018-03-04T07:31:52.962Z,3.5
2018-03-04T07:32:54.350Z,3.5
2018-03-04T07:33:55.735Z,3.7
2018-03-04T07:34:57.120Z,3.7
2018-03-04T07:35:58.509Z,3.7
2018-03-04T07:36:59.895Z,3.7
2018-03-04T07:38:01.285Z,3.8
2018-03-04T07:39:02.666Z,3.8
2018-03-04T07:40:04.112Z,3.9
2018-03-04T07:41:05.501Z,4.0
2018-03-04T07:42:06.890Z,4.0
2018-03-04T07:43:08.276Z,4.0
2018-03-04T07:44:09.661Z,4.1
2018-03-04T07:45:11.050Z,4.1
2018-03-04T07:46:12.435Z,4.1
2018-03-04T07:47:13.837Z,4.1
2018-03-04T07:48:15.211Z,4.1
2018-03-04T07:49:16.592Z,4.1
2018-03-04T07:50:17.989Z,4.1
2018-03-04T07:51:19.374Z,4.3
2018-03-04T07:52:20.759Z,4.2
2018-03-04T07:53:22.144Z,4.2
2018-03-04T07:54:23.527Z,4.3
2018-03-04T07:55:24.915Z,4.3
2018-03-04T07:56:26.300Z,4.4
2018-03-04T07:57:27.694Z,4.4
2018-03-04T07:58:29.084Z,4.4
2018-03-04T07:59:30.476Z,4.3
2018-03-04T08:00:31.933Z,4.5
2018-03-04T08:01:33.319Z,4.6
2018-03-04T08:02:34.705Z,4.5
2018-03-04T08:03:36.092Z,4.5
2018-03-04T08:04:37.479Z,4.7
2018-03-04T08:05:38.872Z,4.7
2018-03-04T08:06:40.260Z,4.7
2018-03-04T08:07:41.645Z,4.8
2018-03-04T08:08:43.030Z,4.8
2018-03-04T08:09:44.420Z,4.8
2018-03-04T08:10:45.808Z,4.8
2018-03-04T08:11:47.194Z,4.8
2018-03-04T08:12:48.584Z,5.0
2018-03-04T08:13:49.978Z,5.0
2018-03-04T08:14:51.414Z,5.0
2018-03-04T08:15:52.953Z,5.0
2018-03-04T08:16:54.413Z,5.1
2018-03-04T08:17:55.850Z,5.2
2018-03-04T08:18:57.237Z,5.2
2018-03-04T08:19:58.633Z,5.1
2018-03-04T08:21:00.020Z,5.2
2018-03-04T08:22:01.404Z,5.2
2018-03-04T08:23:02.794Z,5.2
2018-03-04T08:24:04.180Z,5.2
2018-03-04T08:25:05.570Z,5.2
2018-03-04T08:26:06.979Z,5.2
2018-03-04T08:27:08.389Z,5.3
2018-03-04T08:28:09.776Z,5.4
2018-03-04T08:29:11.192Z,5.5
2018-03-04T08:30:12.576Z,5.4
2018-03-04T08:31:13.968Z,5.6
2018-03-04T08:32:15.352Z,5.7
2018-03-04T08:33:16.741Z,5.8
2018-03-04T08:34:18.154Z,5.8
2018-03-04T08:35:19.546Z,6.0
2018-03-04T08:36:20.932Z,6.1
2018-03-04T08:37:22.318Z,6.2
2018-03-04T08:38:23.725Z,6.2
2018-03-04T08:39:25.134Z,6.3
2018-03-04T08:40:26.521Z,6.4
2018-03-04T08:41:27.924Z,6.4
2018-03-04T08:42:29.316Z,6.5
2018-03-04T08:43:30.728Z,6.5
2018-03-04T08:44:32.119Z,6.6
2018-03-04T08:45:33.554Z,6.6
2018-03-04T08:46:34.912Z,6.6
2018-03-04T08:47:36.303Z,6.7
2018-03-04T08:48:37.699Z,6.8
2018-03-04T08:49:39.242Z,6.7
2018-03-04T08:50:40.645Z,6.6
2018-03-04T08:51:42.031Z,6.7
2018-03-04T08:52:43.421Z,6.7
2018-03-04T08:53:44.810Z,6.7
2018-03-04T08:54:46.204Z,6.7
2018-03-04T08:55:47.587Z,6.7
2018-03-04T08:56:48.980Z,6.7
2018-03-04T08:57:50.371Z,6.8
2018-03-04T08:58:51.777Z,6.9
2018-03-04T08:59:53.164Z,6.8
2018-03-04T09:00:54.620Z,6.9
2018-03-04T09:01:56.017Z,7.0
2018-03-04T09:02:57.413Z,7.1
2018-03-04T09:03:58.829Z,7.1
2018-03-04T09:05:00.335Z,7.2
2018-03-04T09:06:01.806Z,7.2
2018-03-04T09:07:03.204Z,7.3
2018-03-04T09:08:04.592Z,7.4
2018-03-04T09:09:05.986Z,7.6
2018-03-04T09:10:07.376Z,7.6
2018-03-04T09:11:08.788Z,7.7
2018-03-04T09:12:10.165Z,7.8
2018-03-04T09:13:11.553Z,7.9
2018-03-04T09:14:12.939Z,8.0
2018-03-04T09:15:14.339Z,7.9
2018-03-04T09:16:15.730Z,8.0
2018-03-04T09:17:17.122Z,7.9
2018-03-04T09:18:18.510Z,7.8
2018-03-04T09:19:19.903Z,7.9
2018-03-04T09:20:21.289Z,7.7
2018-03-04T09:21:22.676Z,7.7
2018-03-04T09:22:24.065Z,7.8
2018-03-04T09:23:25.740Z,7.7
2018-03-04T09:24:27.107Z,7.7
2018-03-04T09:25:28.501Z,7.7
2018-03-04T09:26:30.214Z,7.7
2018-03-04T09:27:31.603Z,7.7
2018-03-04T09:28:33.003Z,7.7
2018-03-04T09:29:34.396Z,7.8
2018-03-04T09:30:35.782Z,7.9
2018-03-04T09:31:37.171Z,8.0
2018-03-04T09:32:38.566Z,8.1
2018-03-04T09:33:39.989Z,8.4
2018-03-04T09:34:41.381Z,8.4
2018-03-04T09:35:42.781Z,8.5
2018-03-04T09:36:44.209Z,8.6
2018-03-04T09:37:45.600Z,8.7
2018-03-04T09:38:46.999Z,8.8
2018-03-04T09:39:48.494Z,8.8
2018-03-04T09:40:49.886Z,9.1
2018-03-04T09:41:51.285Z,9.3
2018-03-04T09:42:52.673Z,9.6
2018-03-04T09:43:54.065Z,10.0
2018-03-04T09:44:55.457Z,9.8
2018-03-04T09:45:56.849Z,9.7
2018-03-04T09:46:58.240Z,9.7
2018-03-04T09:47:59.634Z,10.2
2018-03-04T09:49:01.028Z,10.7
2018-03-04T09:50:02.431Z,11.2
2018-03-04T09:51:03.831Z,11.7
2018-03-04T09:52:05.236Z,12.2
2018-03-04T09:53:06.634Z,12.7
2018-03-04T09:54:08.035Z,13.0
2018-03-04T09:55:09.429Z,13.4
2018-03-04T09:56:10.870Z,13.9
2018-03-04T09:57:12.317Z,14.3
2018-03-04T09:58:13.718Z,14.8
2018-03-04T09:59:15.123Z,15.0
2018-03-04T10:00:16.526Z,15.1
2018-03-04T10:01:17.925Z,15.0
2018-03-04T10:02:19.318Z,14.5
2018-03-04T10:03:20.709Z,14.2
2018-03-04T10:04:22.108Z,13.7
2018-03-04T10:05:23.812Z,13.5
2018-03-04T10:06:25.494Z,13.5
2018-03-04T10:07:26.877Z,13.1
2018-03-04T10:08:28.276Z,13.0
2018-03-04T10:09:29.690Z,13.1
2018-03-04T10:10:31.085Z,13.1
2018-03-04T10:11:32.486Z,13.1
2018-03-04T10:12:33.887Z,13.9
2018-03-04T10:13:35.289Z,14.5
2018-03-04T10:14:36.690Z,14.9
2018-03-04T10:15:38.094Z,15.4
2018-03-04T10:16:39.494Z,15.8
2018-03-04T10:17:40.984Z,16.3
2018-03-04T10:18:42.303Z,16.6
2018-03-04T10:19:43.700Z,17.0
2018-03-04T10:20:45.113Z,17.4
2018-03-04T10:21:46.571Z,17.9
2018-03-04T10:22:48.333Z,18.0
2018-03-04T10:23:49.734Z,18.4
2018-03-04T10:24:51.130Z,18.7
2018-03-04T10:25:52.538Z,18.8
2018-03-04T10:26:53.938Z,18.9
2018-03-04T10:27:55.341Z,18.9
2018-03-04T10:28:56.748Z,19.2
2018-03-04T10:29:58.154Z,19.3
2018-03-04T10:30:59.570Z,19.3
2018-03-04T10:32:00.972Z,19.7
2018-03-04T10:33:02.592Z,18.7
2018-03-04T10:34:03.725Z,18.1
2018-03-04T10:35:05.162Z,18.5
2018-03-04T10:36:06.564Z,18.9
2018-03-04T10:37:07.974Z,19.5
2018-03-04T10:38:09.391Z,19.1
2018-03-04T10:39:10.794Z,18.5
2018-03-04T10:40:12.247Z,17.9
2018-03-04T10:41:13.647Z,17.6
2018-03-04T10:42:15.049Z,17.2
2018-03-04T10:43:16.793Z,16.7
2018-03-04T10:44:18.531Z,17.3
2018-03-04T10:45:19.967Z,17.2
2018-03-04T10:46:21.367Z,16.8
2018-03-04T10:47:22.845Z,17.0
2018-03-04T10:48:24.272Z,17.3
2018-03-04T10:49:25.675Z,17.9
2018-03-04T10:50:27.077Z,18.2
2018-03-04T10:51:28.495Z,18.7
2018-03-04T10:52:29.916Z,18.7
2018-03-04T10:53:31.313Z,19.0
2018-03-04T10:54:32.726Z,19.2
2018-03-04T10:55:34.157Z,19.8
2018-03-04T10:56:35.524Z,20.5
2018-03-04T10:57:37.334Z,21.0
2018-03-04T10:58:38.789Z,21.6
2018-03-04T10:59:40.142Z,21.9
2018-03-04T11:00:41.562Z,21.9
2018-03-04T11:01:42.962Z,22.3
2018-03-04T11:02:44.377Z,22.4
2018-03-04T11:03:45.780Z,22.7
2018-03-04T11:04:47.187Z,22.7
2018-03-04T11:05:48.593Z,23.0
2018-03-04T11:06:50.009Z,23.4
2018-03-04T11:07:51.416Z,23.6
2018-03-04T11:08:52.824Z,23.6
2018-03-04T11:09:54.286Z,23.5
2018-03-04T11:10:55.727Z,23.7
2018-03-04T11:11:57.301Z,23.7
2018-03-04T11:12:58.716Z,23.4
2018-03-04T11:14:00.112Z,23.0
2018-03-04T11:15:01.516Z,22.5
2018-03-04T11:16:02.917Z,22.1
2018-03-04T11:17:04.319Z,21.7
2018-03-04T11:18:05.718Z,21.5
2018-03-04T11:19:07.122Z,21.0
2018-03-04T11:20:08.528Z,20.8
2018-03-04T11:21:09.929Z,20.6
2018-03-04T11:22:11.330Z,20.5
2018-03-04T11:23:12.733Z,20.5
2018-03-04T11:24:14.169Z,20.2
2018-03-04T11:25:15.617Z,20.0
2018-03-04T11:26:17.749Z,20.0
2018-03-04T11:27:19.152Z,20.0
2018-03-04T11:28:20.547Z,20.2
2018-03-04T11:29:22.014Z,20.1
2018-03-04T11:30:23.528Z,20.1
2018-03-04T11:31:24.947Z,20.0
2018-03-04T11:32:26.353Z,19.9
2018-03-04T11:33:27.752Z,19.9
2018-03-04T11:34:29.158Z,19.7
2018-03-04T11:35:30.561Z,19.6
2018-03-04T11:36:31.956Z,19.6
2018-03-04T11:37:33.411Z,19.6
2018-03-04T11:38:34.823Z,19.5
2018-03-04T11:39:36.223Z,19.4
2018-03-04T11:40:37.631Z,19.2
2018-03-04T11:41:39.497Z,19.0
2018-03-04T11:42:40.929Z,18.9
2018-03-04T11:43:42.318Z,18.6
2018-03-04T11:44:43.719Z,18.5
2018-03-04T11:45:45.120Z,18.4
2018-03-04T11:46:46.521Z,18.2
2018-03-04T11:47:47.920Z,18.0
2018-03-04T11:48:49.337Z,18.0
2018-03-04T11:49:50.738Z,17.9
2018-03-04T11:50:52.138Z,17.9
2018-03-04T11:51:53.537Z,17.8
2018-03-04T11:52:54.935Z,17.7
2018-03-04T11:53:57.185Z,17.8
2018-03-04T11:54:58.698Z,17.9
2018-03-04T11:56:00.223Z,17.9
2018-03-04T11:57:01.618Z,17.8
2018-03-04T11:58:03.016Z,17.7
2018-03-04T11:59:04.433Z,17.6
2018-03-04T12:00:05.834Z,17.6
2018-03-04T12:01:07.230Z,17.7
2018-03-04T12:02:08.637Z,17.8
2018-03-04T12:03:10.034Z,17.8
2018-03-04T12:04:11.446Z,17.9
2018-03-04T12:05:12.845Z,18.1
2018-03-04T12:06:14.244Z,17.9
2018-03-04T12:07:15.645Z,17.9
2018-03-04T12:08:17.046Z,17.8
2018-03-04T12:09:18.517Z,17.9
2018-03-04T12:10:20.016Z,17.9
2018-03-04T12:11:21.417Z,17.9
2018-03-04T12:12:22.817Z,18.0
2018-03-04T12:13:24.211Z,18.0
2018-03-04T12:14:25.611Z,18.1
2018-03-04T12:15:27.030Z,18.2
2018-03-04T12:16:28.455Z,18.1
2018-03-04T12:17:29.864Z,18.1
2018-03-04T12:18:31.262Z,18.3
2018-03-04T12:19:32.661Z,18.1
2018-03-04T12:20:34.061Z,18.2
2018-03-04T12:21:35.460Z,18.2
2018-03-04T12:22:36.859Z,18.2
2018-03-04T12:23:38.261Z,18.2
2018-03-04T12:24:39.669Z,18.2
2018-03-04T12:25:41.063Z,18.3
2018-03-04T12:26:42.674Z,18.3
2018-03-04T12:27:44.173Z,18.2
2018-03-04T12:28:45.568Z,18.2
2018-03-04T12:29:46.972Z,18.2
2018-03-04T12:30:48.504Z,18.2
2018-03-04T12:31:49.955Z,18.1
2018-03-04T12:32:51.353Z,18.2
2018-03-04T12:33:52.846Z,18.1
2018-03-04T12:34:54.242Z,18.2
2018-03-04T12:35:57.094Z,18.1
2018-03-04T12:36:58.457Z,18.1
2018-03-04T12:37:59.880Z,17.9
2018-03-04T12:39:01.376Z,17.9
2018-03-04T12:40:02.829Z,18.0
2018-03-04T12:41:04.280Z,17.9
2018-03-04T12:42:05.897Z,17.7
2018-03-04T12:43:07.421Z,17.6
2018-03-04T12:44:08.821Z,17.4
2018-03-04T12:45:10.219Z,17.5
2018-03-04T12:46:11.641Z,17.5
2018-03-04T12:47:13.058Z,17.6
2018-03-04T12:48:14.467Z,17.6
2018-03-04T12:49:15.862Z,17.7
2018-03-04T12:50:17.263Z,17.6
2018-03-04T12:51:18.665Z,17.6
2018-03-04T12:52:20.061Z,17.5
2018-03-04T12:53:21.462Z,17.4
2018-03-04T12:54:22.880Z,17.4
2018-03-04T12:55:24.275Z,17.5
2018-03-04T12:56:25.674Z,17.6
2018-03-04T12:57:27.083Z,17.6
2018-03-04T12:58:28.470Z,17.4
2018-03-04T12:59:29.943Z,17.5
2018-03-04T13:00:31.386Z,17.4
2018-03-04T13:01:33.026Z,17.3
2018-03-04T13:02:34.468Z,17.3
2018-03-04T13:03:35.862Z,17.3
2018-03-04T13:04:37.257Z,17.4
2018-03-04T13:05:38.657Z,17.2
2018-03-04T13:06:40.063Z,17.1
2018-03-04T13:07:41.463Z,17.1
2018-03-04T13:08:43.813Z,16.9
2018-03-04T13:09:45.216Z,16.7
2018-03-04T13:10:46.612Z,16.6
2018-03-04T13:11:48.017Z,16.4
2018-03-04T13:12:49.407Z,16.3
2018-03-04T13:13:50.804Z,16.2
2018-03-04T13:14:52.208Z,16.2
2018-03-04T13:15:53.622Z,16.2
2018-03-04T13:16:55.034Z,16.1
2018-03-04T13:17:56.434Z,16.1
2018-03-04T13:18:57.827Z,16.1
2018-03-04T13:19:59.259Z,16.1
2018-03-04T13:21:01.534Z,16.0
2018-03-04T13:22:02.941Z,15.9
2018-03-04T13:23:04.366Z,15.8
2018-03-04T13:24:05.768Z,15.8
2018-03-04T13:25:07.174Z,15.6
2018-03-04T13:26:08.567Z,15.5
2018-03-04T13:27:09.994Z,15.4
2018-03-04T13:28:11.389Z,15.3
2018-03-04T13:29:12.790Z,15.1
2018-03-04T13:30:14.185Z,15.2
2018-03-04T13:31:15.583Z,15.0
2018-03-04T13:32:16.976Z,15.1
2018-03-04T13:33:18.373Z,15.0
2018-03-04T13:34:19.790Z,15.0
2018-03-04T13:35:21.168Z,15.0
2018-03-04T13:36:22.608Z,15.0
2018-03-04T13:37:24.003Z,15.0
2018-03-04T13:38:25.399Z,14.9
2018-03-04T13:39:26.791Z,14.9
2018-03-04T13:40:28.187Z,14.8
2018-03-04T13:41:29.672Z,14.8
2018-03-04T13:42:31.085Z,14.8
2018-03-04T13:43:32.535Z,14.7
2018-03-04T13:44:33.928Z,14.7
2018-03-04T13:45:35.418Z,14.4
2018-03-04T13:46:36.816Z,14.5
2018-03-04T13:47:38.213Z,14.4
2018-03-04T13:48:39.611Z,14.4
2018-03-04T13:49:41.018Z,14.4
2018-03-04T13:50:42.420Z,14.3
2018-03-04T13:51:43.813Z,14.5
2018-03-04T13:52:45.211Z,14.5
2018-03-04T13:53:46.607Z,14.5
2018-03-04T13:54:48.005Z,14.6
2018-03-04T13:55:49.404Z,14.6
2018-03-04T13:56:50.802Z,14.6